createdAt,value
2023-03-17T00:00:47.420Z,997.79
2023-03-17T00:01:47.394Z,997.78
2023-03-17T00:02:47.505Z,997.79
2023-03-17T00:03:47.489Z,997.75
2023-03-17T00:04:47.386Z,997.76
2023-03-17T00:05:47.353Z,997.79
2023-03-17T00:06:47.388Z,997.79
2023-03-17T00:07:47.374Z,997.81
2023-03-17T00:08:47.356Z,997.85
2023-03-17T00:09:47.415Z,997.86
2023-03-17T00:10:47.323Z,997.82
2023-03-17T00:11:47.333Z,997.86
2023-03-17T00:12:47.332Z,997.82
2023-03-17T00:13:47.322Z,997.84
2023-03-17T00:14:47.274Z,997.79
2023-03-17T00:15:47.268Z,997.75
2023-03-17T00:16:47.279Z,997.79
2023-03-17T00:17:47.259Z,997.78
2023-03-17T00:18:47.257Z,997.71
2023-03-17T00:19:47.252Z,997.73
2023-03-17T00:20:47.203Z,997.72
2023-03-17T00:21:47.215Z,997.72
2023-03-17T00:22:47.164Z,997.72
2023-03-17T00:23:47.188Z,997.74
2023-03-17T00:24:47.183Z,997.69
2023-03-17T00:25:47.165Z,997.69
2023-03-17T00:26:47.138Z,997.73
2023-03-17T00:27:47.115Z,997.72
2023-03-17T00:28:47.124Z,997.73
2023-03-17T00:29:47.116Z,997.70
2023-03-17T00:30:47.135Z,997.68
2023-03-17T00:31:47.108Z,997.67
2023-03-17T00:32:47.113Z,997.66
2023-03-17T00:33:47.084Z,997.65
2023-03-17T00:34:47.066Z,997.67
2023-03-17T00:35:47.065Z,997.62
2023-03-17T00:36:47.065Z,997.64
2023-03-17T00:37:47.020Z,997.68
2023-03-17T00:38:47.025Z,997.67
2023-03-17T00:39:47.049Z,997.67
2023-03-17T00:40:51.409Z,997.66
2023-03-17T00:41:51.387Z,997.60
2023-03-17T00:42:46.991Z,997.59
2023-03-17T00:43:46.980Z,997.57
2023-03-17T00:44:46.973Z,997.51
2023-03-17T00:45:46.983Z,997.56
2023-03-17T00:46:47.014Z,997.58
2023-03-17T00:47:46.921Z,997.59
2023-03-17T00:48:46.923Z,997.57
2023-03-17T00:49:46.902Z,997.62
2023-03-17T00:50:46.928Z,997.56
2023-03-17T00:51:46.872Z,997.55
2023-03-17T00:52:46.875Z,997.53
2023-03-17T00:53:46.837Z,997.55
2023-03-17T00:54:46.891Z,997.54
2023-03-17T00:55:46.842Z,997.53
2023-03-17T00:56:46.831Z,997.54
2023-03-17T00:57:46.835Z,997.56
2023-03-17T00:58:46.811Z,997.56
2023-03-17T00:59:46.772Z,997.56
2023-03-17T01:00:46.876Z,997.52
2023-03-17T01:01:46.828Z,997.55
2023-03-17T01:02:46.798Z,997.55
2023-03-17T01:03:46.727Z,997.58
2023-03-17T01:04:52.856Z,997.57
2023-03-17T01:05:46.725Z,997.59
2023-03-17T01:06:46.736Z,997.58
2023-03-17T01:07:46.744Z,997.54
2023-03-17T01:08:46.722Z,997.51
2023-03-17T01:09:46.683Z,997.47
2023-03-17T01:10:46.708Z,997.44
2023-03-17T01:11:46.668Z,997.40
2023-03-17T01:12:46.642Z,997.38
2023-03-17T01:13:46.626Z,997.35
2023-03-17T01:14:46.655Z,997.33
2023-03-17T01:15:46.650Z,997.33
2023-03-17T01:16:46.680Z,997.34
2023-03-17T01:17:46.588Z,997.35
2023-03-17T01:18:46.728Z,997.34
2023-03-17T01:19:46.604Z,997.29
2023-03-17T01:20:46.594Z,997.28
2023-03-17T01:21:46.608Z,997.28
2023-03-17T01:22:46.544Z,997.22
2023-03-17T01:23:46.514Z,997.23
2023-03-17T01:24:46.538Z,997.23
2023-03-17T01:25:46.513Z,997.21
2023-03-17T01:26:46.493Z,997.20
2023-03-17T01:27:46.534Z,997.25
2023-03-17T01:28:46.503Z,997.20
2023-03-17T01:29:46.456Z,997.19
2023-03-17T01:30:46.470Z,997.19
2023-03-17T01:31:46.461Z,997.19
2023-03-17T01:32:46.552Z,997.18
2023-03-17T01:33:46.419Z,997.18
2023-03-17T01:34:46.486Z,997.16
2023-03-17T01:35:46.495Z,997.18
2023-03-17T01:36:46.410Z,997.15
2023-03-17T01:37:46.409Z,997.16
2023-03-17T01:38:46.384Z,997.14
2023-03-17T01:39:46.361Z,997.12
2023-03-17T01:40:46.349Z,997.10
2023-03-17T01:41:46.378Z,997.08
2023-03-17T01:42:46.367Z,997.05
2023-03-17T01:43:46.312Z,997.05
2023-03-17T01:44:46.356Z,997.03
2023-03-17T01:45:46.308Z,997.01
2023-03-17T01:46:46.291Z,997.01
2023-03-17T01:47:46.298Z,997.00
2023-03-17T01:48:46.341Z,996.99
2023-03-17T01:49:46.261Z,997.00
2023-03-17T01:50:46.257Z,996.99
2023-03-17T01:51:46.226Z,996.98
2023-03-17T01:52:46.252Z,996.97
2023-03-17T01:53:46.208Z,996.97
2023-03-17T01:54:46.224Z,996.99
2023-03-17T01:55:46.215Z,996.97
2023-03-17T01:56:46.186Z,996.98
2023-03-17T01:57:46.160Z,996.98
2023-03-17T01:58:46.166Z,996.97
2023-03-17T01:59:46.177Z,996.96
2023-03-17T02:00:46.252Z,996.95
2023-03-17T02:01:46.260Z,996.94
2023-03-17T02:02:46.183Z,996.95
2023-03-17T02:03:46.203Z,996.97
2023-03-17T02:04:46.093Z,996.96
2023-03-17T02:05:46.087Z,996.96
2023-03-17T02:06:57.439Z,996.93
2023-03-17T02:07:46.145Z,996.90
2023-03-17T02:08:46.042Z,996.87
2023-03-17T02:09:46.121Z,996.86
2023-03-17T02:10:46.036Z,996.84
2023-03-17T02:11:46.028Z,996.83
2023-03-17T02:12:46.038Z,996.85
2023-03-17T02:13:46.025Z,996.86
2023-03-17T02:14:45.999Z,996.86
2023-03-17T02:15:46.033Z,996.87
2023-03-17T02:16:45.998Z,996.89
2023-03-17T02:17:46.051Z,996.89
2023-03-17T02:18:45.951Z,996.87
2023-03-17T02:19:45.946Z,996.84
2023-03-17T02:20:46.006Z,996.83
2023-03-17T02:21:45.918Z,996.79
2023-03-17T02:22:45.918Z,996.76
2023-03-17T02:23:45.916Z,996.74
2023-03-17T02:24:45.919Z,996.73
2023-03-17T02:25:45.896Z,996.73
2023-03-17T02:26:45.863Z,996.73
2023-03-17T02:27:45.896Z,996.75
2023-03-17T02:28:45.940Z,996.76
2023-03-17T02:29:45.868Z,996.77
2023-03-17T02:30:45.888Z,996.76
2023-03-17T02:31:45.844Z,996.78
2023-03-17T02:32:45.904Z,996.78
2023-03-17T02:33:45.807Z,996.80
2023-03-17T02:34:45.779Z,996.80
2023-03-17T02:35:45.888Z,996.83
2023-03-17T02:36:45.781Z,996.90
2023-03-17T02:37:45.764Z,996.91
2023-03-17T02:38:45.734Z,996.93
2023-03-17T02:39:45.743Z,996.93
2023-03-17T02:40:45.787Z,996.95
2023-03-17T02:41:45.711Z,996.91
2023-03-17T02:42:45.747Z,996.89
2023-03-17T02:43:45.764Z,996.86
2023-03-17T02:44:45.695Z,996.82
2023-03-17T02:45:45.720Z,996.80
2023-03-17T02:46:45.659Z,996.79
2023-03-17T02:47:45.661Z,996.76
2023-03-17T02:48:45.643Z,996.74
2023-03-17T02:49:45.693Z,996.68
2023-03-17T02:50:45.654Z,996.64
2023-03-17T02:51:45.646Z,996.57
2023-03-17T02:52:45.594Z,996.53
2023-03-17T02:53:45.604Z,996.50
2023-03-17T02:54:45.651Z,996.48
2023-03-17T02:55:45.632Z,996.48
2023-03-17T02:56:45.620Z,996.49
2023-03-17T02:57:45.605Z,996.45
2023-03-17T02:58:45.514Z,996.46
2023-03-17T02:59:45.547Z,996.46
2023-03-17T03:00:45.503Z,996.48
2023-03-17T03:01:45.577Z,996.49
2023-03-17T03:02:45.597Z,996.49
2023-03-17T03:03:45.490Z,996.51
2023-03-17T03:04:45.548Z,996.48
2023-03-17T03:05:45.547Z,996.48
2023-03-17T03:06:45.453Z,996.52
2023-03-17T03:07:45.421Z,996.52
2023-03-17T03:08:45.416Z,996.51
2023-03-17T03:09:45.454Z,996.52
2023-03-17T03:10:45.438Z,996.56
2023-03-17T03:11:45.461Z,996.57
2023-03-17T03:12:45.427Z,996.59
2023-03-17T03:13:45.410Z,996.61
2023-03-17T03:14:45.408Z,996.63
2023-03-17T03:15:45.434Z,996.63
2023-03-17T03:16:45.346Z,996.63
2023-03-17T03:17:45.410Z,996.63
2023-03-17T03:18:45.349Z,996.62
2023-03-17T03:19:45.338Z,996.60
2023-03-17T03:20:45.289Z,996.58
2023-03-17T03:21:45.328Z,996.58
2023-03-17T03:22:45.330Z,996.58
2023-03-17T03:23:45.280Z,996.56
2023-03-17T03:24:45.274Z,996.55
2023-03-17T03:25:45.297Z,996.54
2023-03-17T03:26:45.261Z,996.51
2023-03-17T03:27:45.236Z,996.50
2023-03-17T03:28:45.224Z,996.47
2023-03-17T03:29:45.224Z,996.48
2023-03-17T03:30:45.281Z,996.47
2023-03-17T03:31:45.222Z,996.48
2023-03-17T03:32:45.258Z,996.45
2023-03-17T03:33:45.209Z,996.45
2023-03-17T03:34:45.177Z,996.45
2023-03-17T03:35:45.163Z,996.44
2023-03-17T03:36:45.122Z,996.46
2023-03-17T03:37:45.165Z,996.45
2023-03-17T03:38:45.136Z,996.46
2023-03-17T03:39:45.157Z,996.47
2023-03-17T03:40:45.191Z,996.49
2023-03-17T03:41:45.080Z,996.54
2023-03-17T03:42:45.045Z,996.53
2023-03-17T03:43:45.070Z,996.56
2023-03-17T03:44:45.072Z,996.57
2023-03-17T03:45:45.029Z,996.57
2023-03-17T03:46:45.038Z,996.56
2023-03-17T03:47:45.006Z,996.55
2023-03-17T03:48:44.997Z,996.56
2023-03-17T03:49:45.019Z,996.60
2023-03-17T03:50:45.019Z,996.62
2023-03-17T03:51:44.975Z,996.62
2023-03-17T03:52:45.011Z,996.63
2023-03-17T03:53:44.989Z,996.59
2023-03-17T03:54:45.059Z,996.53
2023-03-17T03:55:44.981Z,996.48
2023-03-17T03:56:44.948Z,996.43
2023-03-17T03:57:44.946Z,996.42
2023-03-17T03:58:44.901Z,996.40
2023-03-17T03:59:44.976Z,996.40
2023-03-17T04:00:44.878Z,996.39
2023-03-17T04:01:44.884Z,996.39
2023-03-17T04:02:44.929Z,996.38
2023-03-17T04:03:44.834Z,996.37
2023-03-17T04:04:44.889Z,996.37
2023-03-17T04:05:44.848Z,996.34
2023-03-17T04:06:44.816Z,996.31
2023-03-17T04:07:44.850Z,996.31
2023-03-17T04:08:44.862Z,996.32
2023-03-17T04:09:44.822Z,996.32
2023-03-17T04:10:44.787Z,996.37
2023-03-17T04:11:44.773Z,996.43
2023-03-17T04:12:44.791Z,996.47
2023-03-17T04:13:44.749Z,996.51
2023-03-17T04:14:44.785Z,996.54
2023-03-17T04:15:44.693Z,996.54
2023-03-17T04:16:44.749Z,996.55
2023-03-17T04:17:44.705Z,996.56
2023-03-17T04:18:44.799Z,996.57
2023-03-17T04:19:44.696Z,996.55
2023-03-17T04:20:44.681Z,996.52
2023-03-17T04:21:44.660Z,996.48
2023-03-17T04:22:44.691Z,996.43
2023-03-17T04:23:44.619Z,996.40
2023-03-17T04:24:44.607Z,996.38
2023-03-17T04:25:44.621Z,996.36
2023-03-17T04:26:44.611Z,996.35
2023-03-17T04:27:44.563Z,996.36
2023-03-17T04:28:44.596Z,996.35
2023-03-17T04:29:44.573Z,996.33
2023-03-17T04:30:44.547Z,996.30
2023-03-17T04:31:44.597Z,996.29
2023-03-17T04:32:44.585Z,996.29
2023-03-17T04:33:44.556Z,996.29
2023-03-17T04:34:44.585Z,996.29
2023-03-17T04:35:44.546Z,996.30
2023-03-17T04:36:44.507Z,996.32
2023-03-17T04:37:44.487Z,996.33
2023-03-17T04:38:44.457Z,996.34
2023-03-17T04:39:44.456Z,996.34
2023-03-17T04:40:44.436Z,996.34
2023-03-17T04:41:44.435Z,996.34
2023-03-17T04:42:44.448Z,996.35
2023-03-17T04:43:44.426Z,996.36
2023-03-17T04:44:44.394Z,996.38
2023-03-17T04:45:44.414Z,996.40
2023-03-17T04:46:44.375Z,996.40
2023-03-17T04:47:44.407Z,996.39
2023-03-17T04:48:44.344Z,996.39
2023-03-17T04:49:44.318Z,996.39
2023-03-17T04:50:44.388Z,996.39
2023-03-17T04:51:44.406Z,996.38
2023-03-17T04:52:44.337Z,996.38
2023-03-17T04:53:44.302Z,996.36
2023-03-17T04:54:44.313Z,996.34
2023-03-17T04:55:44.302Z,996.34
2023-03-17T04:56:44.311Z,996.35
2023-03-17T04:57:44.305Z,996.37
2023-03-17T04:58:44.213Z,996.40
2023-03-17T04:59:44.228Z,996.44
2023-03-17T05:00:44.285Z,996.50
2023-03-17T05:01:44.206Z,996.55
2023-03-17T05:02:44.215Z,996.59
2023-03-17T05:03:44.247Z,996.63
2023-03-17T05:04:44.148Z,996.66
2023-03-17T05:05:44.170Z,996.68
2023-03-17T05:06:44.180Z,996.67
2023-03-17T05:07:44.076Z,996.65
2023-03-17T05:08:44.077Z,996.62
2023-03-17T05:09:44.084Z,996.60
2023-03-17T05:10:44.071Z,996.59
2023-03-17T05:11:44.085Z,996.59
2023-03-17T05:12:44.082Z,996.58
2023-03-17T05:13:44.053Z,996.57
2023-03-17T05:14:44.024Z,996.55
2023-03-17T05:15:44.011Z,996.53
2023-03-17T05:16:44.100Z,996.52
2023-03-17T05:17:44.008Z,996.52
2023-03-17T05:18:43.969Z,996.53
2023-03-17T05:19:43.982Z,996.53
2023-03-17T05:20:43.998Z,996.54
2023-03-17T05:21:43.997Z,996.54
2023-03-17T05:22:43.963Z,996.54
2023-03-17T05:23:43.925Z,996.54
2023-03-17T05:24:43.960Z,996.55
2023-03-17T05:25:43.908Z,996.54
2023-03-17T05:26:43.899Z,996.54
2023-03-17T05:27:43.895Z,996.55
2023-03-17T05:28:43.872Z,996.57
2023-03-17T05:29:43.892Z,996.59
2023-03-17T05:30:43.868Z,996.61
2023-03-17T05:31:43.818Z,996.61
2023-03-17T05:32:43.902Z,996.60
2023-03-17T05:33:43.828Z,996.59
2023-03-17T05:34:43.779Z,996.58
2023-03-17T05:35:43.853Z,996.57
2023-03-17T05:36:43.774Z,996.59
2023-03-17T05:37:43.752Z,996.62
2023-03-17T05:38:43.764Z,996.64
2023-03-17T05:39:43.755Z,996.67
2023-03-17T05:40:43.760Z,996.69
2023-03-17T05:41:43.759Z,996.70
2023-03-17T05:42:43.712Z,996.69
2023-03-17T05:43:43.681Z,996.74
2023-03-17T05:44:43.727Z,996.76
2023-03-17T05:45:43.743Z,996.80
2023-03-17T05:46:43.689Z,996.83
2023-03-17T05:47:43.650Z,996.82
2023-03-17T05:48:43.623Z,996.82
2023-03-17T05:49:43.630Z,996.82
2023-03-17T05:50:43.637Z,996.81
2023-03-17T05:51:43.624Z,996.79
2023-03-17T05:52:43.645Z,996.79
2023-03-17T05:53:43.597Z,996.78
2023-03-17T05:54:43.588Z,996.77
2023-03-17T05:55:43.560Z,996.80
2023-03-17T05:56:43.562Z,996.81
2023-03-17T05:57:43.593Z,996.81
2023-03-17T05:58:43.564Z,996.79
2023-03-17T05:59:43.528Z,996.77
2023-03-17T06:00:43.499Z,996.77
2023-03-17T06:01:43.490Z,996.77
2023-03-17T06:02:43.600Z,996.78
2023-03-17T06:03:43.562Z,996.77
2023-03-17T06:04:43.510Z,996.73
2023-03-17T06:05:43.449Z,996.70
2023-03-17T06:06:43.460Z,996.66
2023-03-17T06:07:52.990Z,996.63
2023-03-17T06:08:43.472Z,996.63
2023-03-17T06:09:43.432Z,996.62
2023-03-17T06:10:43.418Z,996.61
2023-03-17T06:11:43.390Z,996.63
2023-03-17T06:12:43.380Z,996.65
2023-03-17T06:13:43.361Z,996.64
2023-03-17T06:14:43.369Z,996.63
2023-03-17T06:15:43.440Z,996.61
2023-03-17T06:16:43.376Z,996.61
2023-03-17T06:17:43.357Z,996.60
2023-03-17T06:18:43.306Z,996.61
2023-03-17T06:19:43.334Z,996.61
2023-03-17T06:20:43.341Z,996.61
2023-03-17T06:21:43.272Z,996.60
2023-03-17T06:23:00.410Z,996.61
2023-03-17T06:23:43.287Z,996.62
2023-03-17T06:24:43.257Z,996.62
2023-03-17T06:25:43.241Z,996.60
2023-03-17T06:26:43.239Z,996.55
2023-03-17T06:27:43.235Z,996.50
2023-03-17T06:28:43.205Z,996.49
2023-03-17T06:29:43.222Z,996.46
2023-03-17T06:30:43.218Z,996.46
2023-03-17T06:31:43.161Z,996.48
2023-03-17T06:32:43.198Z,996.52
2023-03-17T06:33:43.169Z,996.53
2023-03-17T06:34:43.154Z,996.54
2023-03-17T06:35:43.199Z,996.55
2023-03-17T06:36:43.138Z,996.56
2023-03-17T06:37:43.125Z,996.56
2023-03-17T06:38:43.104Z,996.55
2023-03-17T06:39:43.085Z,996.55
2023-03-17T06:40:43.094Z,996.54
2023-03-17T06:41:43.111Z,996.52
2023-03-17T06:42:43.048Z,996.50
2023-03-17T06:43:43.050Z,996.51
2023-03-17T06:44:43.048Z,996.53
2023-03-17T06:45:43.051Z,996.58
2023-03-17T06:46:43.068Z,996.62
2023-03-17T06:47:43.003Z,996.67
2023-03-17T06:48:43.066Z,996.69
2023-03-17T06:49:43.022Z,996.70
2023-03-17T06:50:42.984Z,996.74
2023-03-17T06:51:42.999Z,996.76
2023-03-17T06:52:44.972Z,996.78
2023-03-17T06:53:42.997Z,996.77
2023-03-17T06:54:42.926Z,996.78
2023-03-17T06:55:42.913Z,996.78
2023-03-17T06:56:42.926Z,996.78
2023-03-17T06:57:42.929Z,996.79
2023-03-17T06:58:42.904Z,996.77
2023-03-17T06:59:42.882Z,996.75
2023-03-17T07:00:42.868Z,996.73
2023-03-17T07:01:42.853Z,996.73
2023-03-17T07:02:42.865Z,996.74
2023-03-17T07:03:42.853Z,996.75
2023-03-17T07:04:42.852Z,996.78
2023-03-17T07:05:42.810Z,996.82
2023-03-17T07:06:42.824Z,996.84
2023-03-17T07:07:42.798Z,996.83
2023-03-17T07:08:42.795Z,996.82
2023-03-17T07:09:42.852Z,996.83
2023-03-17T07:10:42.778Z,996.81
2023-03-17T07:11:42.776Z,996.79
2023-03-17T07:12:42.773Z,996.77
2023-03-17T07:13:42.749Z,996.75
2023-03-17T07:14:42.731Z,996.74
2023-03-17T07:15:42.694Z,996.74
2023-03-17T07:16:42.775Z,996.71
2023-03-17T07:17:42.703Z,996.69
2023-03-17T07:18:42.698Z,996.70
2023-03-17T07:19:42.684Z,996.71
2023-03-17T07:20:42.702Z,996.74
2023-03-17T07:21:42.673Z,996.72
2023-03-17T07:22:42.653Z,996.75
2023-03-17T07:23:42.617Z,996.72
2023-03-17T07:24:42.651Z,996.72
2023-03-17T07:25:42.616Z,996.76
2023-03-17T07:26:42.598Z,996.76
2023-03-17T07:27:42.606Z,996.73
2023-03-17T07:28:42.586Z,996.69
2023-03-17T07:29:42.553Z,996.66
2023-03-17T07:30:42.596Z,996.63
2023-03-17T07:31:42.605Z,996.57
2023-03-17T07:32:42.680Z,996.56
2023-03-17T07:33:42.552Z,996.56
2023-03-17T07:34:42.548Z,996.55
2023-03-17T07:35:42.552Z,996.56
2023-03-17T07:36:42.505Z,996.56
2023-03-17T07:37:42.511Z,996.61
2023-03-17T07:38:42.508Z,996.59
2023-03-17T07:39:42.466Z,996.60
2023-03-17T07:40:42.445Z,996.63
2023-03-17T07:41:42.464Z,996.61
2023-03-17T07:42:42.509Z,996.58
2023-03-17T07:43:42.414Z,996.59
2023-03-17T07:44:42.399Z,996.55
2023-03-17T07:45:42.439Z,996.54
2023-03-17T07:46:42.394Z,996.54
2023-03-17T07:47:42.356Z,996.55
2023-03-17T07:48:42.355Z,996.50
2023-03-17T07:49:42.636Z,996.47
2023-03-17T07:50:42.336Z,996.46
2023-03-17T07:51:42.337Z,996.44
2023-03-17T07:52:42.320Z,996.40
2023-03-17T07:53:42.291Z,996.39
2023-03-17T07:54:43.118Z,996.38
2023-03-17T07:55:42.267Z,996.37
2023-03-17T07:56:42.269Z,996.38
2023-03-17T07:57:42.343Z,996.37
2023-03-17T07:58:42.280Z,996.35
2023-03-17T07:59:42.245Z,996.35
2023-03-17T08:00:42.244Z,996.36
2023-03-17T08:01:42.247Z,996.36
2023-03-17T08:02:42.342Z,996.34
2023-03-17T08:03:42.248Z,996.32
2023-03-17T08:04:42.187Z,996.30
2023-03-17T08:05:42.161Z,996.28
2023-03-17T08:06:42.151Z,996.26
2023-03-17T08:07:42.171Z,996.28
2023-03-17T08:08:42.182Z,996.28
2023-03-17T08:09:42.134Z,996.27
2023-03-17T08:10:42.172Z,996.34
2023-03-17T08:11:42.144Z,996.31
2023-03-17T08:12:42.104Z,996.30
2023-03-17T08:13:42.087Z,996.27
2023-03-17T08:14:42.081Z,996.24
2023-03-17T08:15:42.100Z,996.22
2023-03-17T08:16:42.134Z,996.16
2023-03-17T08:17:42.055Z,996.17
2023-03-17T08:18:42.029Z,996.12
2023-03-17T08:19:42.065Z,996.16
2023-03-17T08:20:42.032Z,996.11
2023-03-17T08:21:41.978Z,996.10
2023-03-17T08:22:41.999Z,996.10
2023-03-17T08:23:41.985Z,996.03
2023-03-17T08:24:41.960Z,996.04
2023-03-17T08:25:41.974Z,995.97
2023-03-17T08:26:41.967Z,995.97
2023-03-17T08:27:41.977Z,995.98
2023-03-17T08:28:41.938Z,996.03
2023-03-17T08:29:41.934Z,996.00
2023-03-17T08:30:42.025Z,995.95
2023-03-17T08:31:42.509Z,995.95
2023-03-17T08:32:41.952Z,995.93
2023-03-17T08:33:41.864Z,995.91
2023-03-17T08:34:41.845Z,995.88
2023-03-17T08:35:41.906Z,995.86
2023-03-17T08:36:41.831Z,995.87
2023-03-17T08:37:41.820Z,995.83
2023-03-17T08:38:41.849Z,995.86
2023-03-17T08:39:41.804Z,995.83
2023-03-17T08:40:41.803Z,995.83
2023-03-17T08:41:41.810Z,995.85
2023-03-17T08:42:41.767Z,995.88
2023-03-17T08:43:41.766Z,995.88
2023-03-17T08:44:43.928Z,995.92
2023-03-17T08:45:41.822Z,995.90
2023-03-17T08:46:41.715Z,995.88
2023-03-17T08:47:41.732Z,995.88
2023-03-17T08:48:41.725Z,995.93
2023-03-17T08:49:41.700Z,995.92
2023-03-17T08:50:41.691Z,995.94
2023-03-17T08:51:41.694Z,995.96
2023-03-17T08:52:41.673Z,995.93
2023-03-17T08:53:41.660Z,995.93
2023-03-17T08:54:41.638Z,995.94
2023-03-17T08:55:41.639Z,995.96
2023-03-17T08:56:41.606Z,995.93
2023-03-17T08:57:41.585Z,995.96
2023-03-17T08:58:41.648Z,995.88
2023-03-17T08:59:41.592Z,995.88
2023-03-17T09:00:41.559Z,995.91
2023-03-17T09:01:41.613Z,995.89
2023-03-17T09:02:41.602Z,995.87
2023-03-17T09:03:41.534Z,995.86
2023-03-17T09:04:41.552Z,995.87
2023-03-17T09:05:41.500Z,995.83
2023-03-17T09:06:51.833Z,995.86
2023-03-17T09:07:41.636Z,995.88
2023-03-17T09:08:41.487Z,995.89
2023-03-17T09:09:41.476Z,995.92
2023-03-17T09:10:44.095Z,995.89
2023-03-17T09:11:41.448Z,995.88
2023-03-17T09:12:41.454Z,995.87
2023-03-17T09:13:41.458Z,995.85
2023-03-17T09:14:44.149Z,995.85
2023-03-17T09:15:41.457Z,995.90
2023-03-17T09:16:41.400Z,995.94
2023-03-17T09:17:41.409Z,995.96
2023-03-17T09:18:41.373Z,995.95
2023-03-17T09:19:41.390Z,995.93
2023-03-17T09:20:41.411Z,995.91
2023-03-17T09:21:41.340Z,995.89
2023-03-17T09:22:41.319Z,995.87
2023-03-17T09:23:41.307Z,995.85
2023-03-17T09:24:41.334Z,995.82
2023-03-17T09:25:41.286Z,995.78
2023-03-17T09:26:41.290Z,995.76
2023-03-17T09:27:41.291Z,995.75
2023-03-17T09:28:41.385Z,995.74
2023-03-17T09:29:41.279Z,995.71
2023-03-17T09:30:41.255Z,995.68
2023-03-17T09:31:41.258Z,995.67
2023-03-17T09:32:41.263Z,995.68
2023-03-17T09:33:41.222Z,995.68
2023-03-17T09:34:41.205Z,995.70
2023-03-17T09:35:41.291Z,995.68
2023-03-17T09:36:41.193Z,995.71
2023-03-17T09:37:41.183Z,995.74
2023-03-17T09:38:41.147Z,995.77
2023-03-17T09:39:41.132Z,995.77
2023-03-17T09:40:41.133Z,995.78
2023-03-17T09:41:41.113Z,995.74
2023-03-17T09:42:41.124Z,995.73
2023-03-17T09:43:41.111Z,995.71
2023-03-17T09:44:41.089Z,995.71
2023-03-17T09:45:43.447Z,995.66
2023-03-17T09:46:41.115Z,995.66
2023-03-17T09:47:42.730Z,995.64
2023-03-17T09:48:41.039Z,995.63
2023-03-17T09:49:41.051Z,995.65
2023-03-17T09:50:41.031Z,995.64
2023-03-17T09:51:41.009Z,995.65
2023-03-17T09:52:40.988Z,995.64
2023-03-17T09:53:40.984Z,995.64
2023-03-17T09:54:40.986Z,995.63
2023-03-17T09:55:40.954Z,995.63
2023-03-17T09:56:40.956Z,995.65
2023-03-17T09:57:40.950Z,995.63
2023-03-17T09:58:40.928Z,995.63
2023-03-17T09:59:40.908Z,995.59
2023-03-17T10:00:40.896Z,995.58
2023-03-17T10:01:40.986Z,995.61
2023-03-17T10:02:40.887Z,995.58
2023-03-17T10:03:40.876Z,995.56
2023-03-17T10:04:40.881Z,995.58
2023-03-17T10:05:40.982Z,995.57
2023-03-17T10:06:40.873Z,995.59
2023-03-17T10:07:40.836Z,995.58
2023-03-17T10:08:40.836Z,995.56
2023-03-17T10:09:40.818Z,995.56
2023-03-17T10:10:40.816Z,995.56
2023-03-17T10:11:40.791Z,995.54
2023-03-17T10:12:40.791Z,995.53
2023-03-17T10:13:40.792Z,995.54
2023-03-17T10:14:40.803Z,995.53
2023-03-17T10:15:40.746Z,995.51
2023-03-17T10:16:40.728Z,995.52
2023-03-17T10:17:40.730Z,995.50
2023-03-17T10:18:40.720Z,995.52
2023-03-17T10:19:40.698Z,995.54
2023-03-17T10:20:40.701Z,995.52
2023-03-17T10:21:40.710Z,995.52
2023-03-17T10:22:40.661Z,995.57
2023-03-17T10:23:40.661Z,995.59
2023-03-17T10:24:40.676Z,995.59
2023-03-17T10:25:40.664Z,995.59
2023-03-17T10:26:40.622Z,995.60
2023-03-17T10:27:40.620Z,995.57
2023-03-17T10:28:40.601Z,995.54
2023-03-17T10:29:40.596Z,995.52
2023-03-17T10:30:40.578Z,995.51
2023-03-17T10:31:40.699Z,995.49
2023-03-17T10:32:40.611Z,995.46
2023-03-17T10:33:40.581Z,995.46
2023-03-17T10:34:40.540Z,995.45
2023-03-17T10:35:40.647Z,995.45
2023-03-17T10:36:40.531Z,995.46
2023-03-17T10:37:42.574Z,995.47
2023-03-17T10:38:40.507Z,995.45
2023-03-17T10:39:40.497Z,995.45
2023-03-17T10:40:40.466Z,995.45
2023-03-17T10:41:40.473Z,995.42
2023-03-17T10:42:40.445Z,995.41
2023-03-17T10:43:40.451Z,995.40
2023-03-17T10:44:40.424Z,995.38
2023-03-17T10:45:42.757Z,995.38
2023-03-17T10:46:40.519Z,995.36
2023-03-17T10:47:40.470Z,995.33
2023-03-17T10:48:40.378Z,995.32
2023-03-17T10:49:40.370Z,995.34
2023-03-17T10:50:40.359Z,995.33
2023-03-17T10:51:40.367Z,995.28
2023-03-17T10:52:40.338Z,995.30
2023-03-17T10:53:40.334Z,995.28
2023-03-17T10:54:40.340Z,995.27
2023-03-17T10:55:40.318Z,995.27
2023-03-17T10:56:40.304Z,995.26
2023-03-17T10:57:40.271Z,995.27
2023-03-17T10:58:40.293Z,995.27
2023-03-17T10:59:42.252Z,995.26
2023-03-17T11:00:40.311Z,995.27
2023-03-17T11:01:40.240Z,995.29
2023-03-17T11:02:40.255Z,995.31
2023-03-17T11:03:40.298Z,995.33
2023-03-17T11:04:40.246Z,995.33
2023-03-17T11:05:40.216Z,995.34
2023-03-17T11:06:40.256Z,995.35
2023-03-17T11:07:40.202Z,995.35
2023-03-17T11:08:40.187Z,995.34
2023-03-17T11:09:40.196Z,995.33
2023-03-17T11:10:40.149Z,995.30
2023-03-17T11:11:40.168Z,995.29
2023-03-17T11:12:40.140Z,995.29
2023-03-17T11:13:40.126Z,995.29
2023-03-17T11:14:40.102Z,995.28
2023-03-17T11:15:40.112Z,995.29
2023-03-17T11:16:40.175Z,995.30
2023-03-17T11:17:40.077Z,995.29
2023-03-17T11:18:40.098Z,995.29
2023-03-17T11:19:40.093Z,995.29
2023-03-17T11:20:40.067Z,995.28
2023-03-17T11:21:40.023Z,995.30
2023-03-17T11:22:40.061Z,995.28
2023-03-17T11:23:40.062Z,995.28
2023-03-17T11:24:39.994Z,995.23
2023-03-17T11:25:40.040Z,995.20
2023-03-17T11:26:39.989Z,995.20
2023-03-17T11:27:39.962Z,995.17
2023-03-17T11:28:39.970Z,995.13
2023-03-17T11:29:40.010Z,995.12
2023-03-17T11:30:39.935Z,995.09
2023-03-17T11:31:40.001Z,995.05
2023-03-17T11:32:39.986Z,995.03
2023-03-17T11:33:39.895Z,995.02
2023-03-17T11:34:39.893Z,995.01
2023-03-17T11:35:39.990Z,994.99
2023-03-17T11:36:39.918Z,994.97
2023-03-17T11:37:39.877Z,994.95
2023-03-17T11:38:39.864Z,994.94
2023-03-17T11:39:39.872Z,994.95
2023-03-17T11:40:39.949Z,994.95
2023-03-17T11:41:39.858Z,994.95
2023-03-17T11:42:39.824Z,994.96
2023-03-17T11:43:39.813Z,994.95
2023-03-17T11:44:39.819Z,994.94
2023-03-17T11:45:39.835Z,994.92
2023-03-17T11:46:39.767Z,994.90
2023-03-17T11:47:39.765Z,994.89
2023-03-17T11:48:39.737Z,994.91
2023-03-17T11:49:39.751Z,994.92
2023-03-17T11:50:39.722Z,994.94
2023-03-17T11:51:39.741Z,994.97
2023-03-17T11:52:39.789Z,994.98
2023-03-17T11:53:39.703Z,994.97
2023-03-17T11:54:39.775Z,994.94
2023-03-17T11:55:39.708Z,994.93
2023-03-17T11:56:40.382Z,994.92
2023-03-17T11:57:39.665Z,994.89
2023-03-17T11:58:39.700Z,994.85
2023-03-17T11:59:39.663Z,994.82
2023-03-17T12:00:39.936Z,994.81
2023-03-17T12:01:39.639Z,994.80
2023-03-17T12:02:39.650Z,994.79
2023-03-17T12:03:39.688Z,994.76
2023-03-17T12:04:39.656Z,994.77
2023-03-17T12:05:39.573Z,994.75
2023-03-17T12:06:39.610Z,994.69
2023-03-17T12:07:39.550Z,994.69
2023-03-17T12:08:39.572Z,994.69
2023-03-17T12:09:39.543Z,994.68
2023-03-17T12:10:39.537Z,994.69
2023-03-17T12:11:39.510Z,994.69
2023-03-17T12:12:39.511Z,994.67
2023-03-17T12:13:39.552Z,994.65
2023-03-17T12:14:39.488Z,994.62
2023-03-17T12:15:39.489Z,994.61
2023-03-17T12:16:39.445Z,994.60
2023-03-17T12:17:39.453Z,994.61
2023-03-17T12:18:39.467Z,994.59
2023-03-17T12:19:39.416Z,994.59
2023-03-17T12:20:39.451Z,994.63
2023-03-17T12:21:39.401Z,994.59
2023-03-17T12:22:39.465Z,994.57
2023-03-17T12:23:39.384Z,994.57
2023-03-17T12:24:39.355Z,994.56
2023-03-17T12:25:39.382Z,994.57
2023-03-17T12:26:39.346Z,994.55
2023-03-17T12:27:39.361Z,994.52
2023-03-17T12:28:39.352Z,994.53